EZY28PR EGPF-LCLK
Flight info
| Callsign | EZY28PR |
|---|---|
| Flight time | N/A |
| Altitude | 35000 |
| Route | NORBO Y96 HAVEN DCT ERKIT N110 DOLAS DCT NAVPI DCT GISEB DCT NOLRU DCT DOJOH DCT DODEN DCT NEGIX DCT DINKU DCT BESNI DCT LATLO DCT OBEDI DCT NAKUM DCT KLAGY DCT AGLIB DCT MITNO DCT VABEK UL603 OLOTA DCT RUGAS DCT PEREN UN128 LMO DCT RIKSO UP14 ZAFLE DCT TOMBI DCT DASNI M601 BONEK |
| Aircraft | A320/M-SDE2E3FGHIJ1RWXYZ/LB1 |
Departure
| Time | 2026-05-05 08:38 |
|---|---|
| Airport | Glasgow Airport (EGPF) |
Arrival
| Time | N/A |
|---|---|
| Airport | Larnaca International Airport (LCLK) |
| Time | Latitude | Longitude | Altitude | Speed | Heading |
|---|---|---|---|---|---|
| 2026-05-05 08:10 | 55.86515 | -4.43823 | 29 ft | 0 kts | 62° |
| 2026-05-05 08:30 | 55.86508 | -4.43844 | 29 ft | 3 kts | 60° |
| 2026-05-05 08:30 | 55.86498 | -4.43875 | 29 ft | 3 kts | 56° |
| 2026-05-05 08:30 | 55.86486 | -4.43904 | 29 ft | 3 kts | 48° |
| 2026-05-05 08:30 | 55.86472 | -4.43928 | 29 ft | 3 kts | 30° |
| 2026-05-05 08:31 | 55.86456 | -4.43939 | 29 ft | 3 kts | 348° |
| 2026-05-05 08:31 | 55.86447 | -4.43935 | 29 ft | 1 kts | 332° |
| 2026-05-05 08:31 | 55.86445 | -4.43933 | 29 ft | 0 kts | 332° |
| 2026-05-05 08:33 | 55.86482 | -4.43968 | 29 ft | 13 kts | 332° |
| 2026-05-05 08:33 | 55.86569 | -4.44031 | 29 ft | 14 kts | 0° |
| 2026-05-05 08:33 | 55.86651 | -4.43910 | 29 ft | 17 kts | 46° |
| 2026-05-05 08:34 | 55.86725 | -4.43757 | 29 ft | 16 kts | 63° |
| 2026-05-05 08:34 | 55.86763 | -4.43557 | 29 ft | 19 kts | 75° |
| 2026-05-05 08:34 | 55.86800 | -4.43298 | 29 ft | 24 kts | 75° |
| 2026-05-05 08:34 | 55.86848 | -4.43021 | 29 ft | 21 kts | 69° |
| 2026-05-05 08:35 | 55.86959 | -4.42886 | 29 ft | 20 kts | 25° |
| 2026-05-05 08:35 | 55.87093 | -4.42789 | 29 ft | 21 kts | 19° |
| 2026-05-05 08:35 | 55.87225 | -4.42700 | 29 ft | 21 kts | 22° |
| 2026-05-05 08:35 | 55.87362 | -4.42610 | 29 ft | 21 kts | 20° |
| 2026-05-05 08:36 | 55.87472 | -4.42435 | 29 ft | 22 kts | 46° |
| 2026-05-05 08:36 | 55.87578 | -4.42238 | 29 ft | 22 kts | 46° |
| 2026-05-05 08:36 | 55.87684 | -4.42040 | 29 ft | 18 kts | 47° |
| 2026-05-05 08:36 | 55.87737 | -4.41939 | 29 ft | 9 kts | 47° |
| 2026-05-05 08:37 | 55.87794 | -4.41867 | 29 ft | 14 kts | 23° |
| 2026-05-05 08:37 | 55.87888 | -4.41862 | 29 ft | 14 kts | 336° |
| 2026-05-05 08:37 | 55.87913 | -4.41992 | 29 ft | 9 kts | 232° |
| 2026-05-05 08:37 | 55.87867 | -4.42076 | 29 ft | 16 kts | 226° |
| 2026-05-05 08:38 | 55.87614 | -4.42557 | 29 ft | 89 kts | 226° |
| 2026-05-05 08:38 | 55.87045 | -4.43614 | 29 ft | 146 kts | 226° |
| 2026-05-05 08:38 | 55.86274 | -4.45034 | 375 ft | 161 kts | 228° |
| 2026-05-05 08:38 | 55.85497 | -4.46477 | 1037 ft | 162 kts | 230° |
| 2026-05-05 08:39 | 55.84705 | -4.47939 | 1688 ft | 166 kts | 228° |
| 2026-05-05 08:39 | 55.83885 | -4.49418 | 2183 ft | 170 kts | 227° |
| 2026-05-05 08:39 | 55.83043 | -4.50912 | 2684 ft | 172 kts | 228° |
| 2026-05-05 08:39 | 55.82191 | -4.52416 | 3165 ft | 174 kts | 228° |
| 2026-05-05 08:40 | 55.81286 | -4.54018 | 3408 ft | 194 kts | 228° |
| 2026-05-05 08:40 | 55.80273 | -4.55823 | 3606 ft | 218 kts | 228° |
| 2026-05-05 08:40 | 55.79141 | -4.57823 | 3877 ft | 241 kts | 227° |
| 2026-05-05 08:40 | 55.77892 | -4.60017 | 4178 ft | 265 kts | 227° |
| 2026-05-05 08:41 | 55.76552 | -4.62356 | 4814 ft | 273 kts | 226° |
| 2026-05-05 08:41 | 55.75190 | -4.64727 | 5585 ft | 276 kts | 226° |
| 2026-05-05 08:41 | 55.73811 | -4.67136 | 5914 ft | 278 kts | 226° |
| 2026-05-05 08:41 | 55.72435 | -4.69541 | 5974 ft | 276 kts | 226° |
| 2026-05-05 08:42 | 55.71056 | -4.71912 | 5993 ft | 276 kts | 226° |
| 2026-05-05 08:42 | 55.69617 | -4.74171 | 5994 ft | 277 kts | 215° |
| 2026-05-05 08:42 | 55.67850 | -4.75526 | 5994 ft | 280 kts | 192° |
| 2026-05-05 08:42 | 55.65917 | -4.75806 | 5994 ft | 279 kts | 182° |
| 2026-05-05 08:43 | 55.63977 | -4.75919 | 5993 ft | 281 kts | 182° |
| 2026-05-05 08:43 | 55.62051 | -4.75416 | 5995 ft | 281 kts | 158° |
| 2026-05-05 08:43 | 55.60424 | -4.73561 | 5997 ft | 279 kts | 132° |
| 2026-05-05 08:43 | 55.59412 | -4.70684 | 6466 ft | 281 kts | 106° |
| 2026-05-05 08:44 | 55.59040 | -4.67255 | 7217 ft | 282 kts | 95° |
| 2026-05-05 08:44 | 55.58811 | -4.63794 | 7924 ft | 286 kts | 94° |
| 2026-05-05 08:44 | 55.58589 | -4.60314 | 8592 ft | 291 kts | 94° |
| 2026-05-05 08:44 | 55.58358 | -4.56738 | 9310 ft | 295 kts | 94° |
| 2026-05-05 08:45 | 55.58124 | -4.53109 | 9991 ft | 299 kts | 94° |
| 2026-05-05 08:45 | 55.57883 | -4.49378 | 10370 ft | 316 kts | 94° |
| 2026-05-05 08:45 | 55.57627 | -4.45393 | 10508 ft | 338 kts | 95° |
| 2026-05-05 08:45 | 55.57352 | -4.41172 | 10896 ft | 350 kts | 95° |